Time;durP1;ratioP1;P1;durP2;ratioP2;P2;SDS_P1;SDS_P2;PMS_P1;PMS_P2;Temp;Humidity;BMP_temperature;BMP_pressure;BME280_temperature;BME280_humidity;BME280_pressure;Samples;Min_cycle;Max_cycle;Signal;HPM_P1;HPM_P2
2022/05/08 00:02:22;;;;;;;23.40;5.38;;;8.70;99.90;;;;;;5029964;28;20046;-61
2022/05/08 00:04:51;;;;;;;15.60;4.90;;;8.70;99.90;;;;;;5030321;28;20512;-61
2022/05/08 00:07:18;;;;;;;15.35;4.93;;;8.60;99.90;;;;;;5046695;28;20475;-62
2022/05/08 00:09:47;;;;;;;17.05;4.68;;;8.60;99.90;;;;;;5030462;28;20140;-61
2022/05/08 00:12:14;;;;;;;17.35;4.72;;;8.60;99.90;;;;;;5029830;28;20053;-67
2022/05/08 00:14:41;;;;;;;20.75;4.00;;;8.60;99.90;;;;;;5030289;28;20053;-62
2022/05/08 00:17:07;;;;;;;14.38;3.78;;;8.60;99.90;;;;;;5030453;28;20409;-61
2022/05/08 00:19:32;;;;;;;21.27;4.53;;;8.50;99.90;;;;;;5029566;28;20034;-61
2022/05/08 00:21:59;;;;;;;19.60;4.47;;;8.50;99.90;;;;;;5030243;28;20037;-62
2022/05/08 00:24:25;;;;;;;17.60;4.43;;;8.50;99.90;;;;;;5030974;28;20410;-62
2022/05/08 00:26:51;;;;;;;16.48;5.10;;;8.50;99.90;;;;;;5030097;28;20053;-62
2022/05/08 00:29:16;;;;;;;20.10;4.57;;;8.50;99.90;;;;;;5030880;28;20124;-62
2022/05/08 00:31:43;;;;;;;15.60;4.72;;;8.50;99.90;;;;;;5013466;28;20549;-61
2022/05/08 00:34:09;;;;;;;17.40;4.97;;;8.50;99.90;;;;;;5029769;28;20057;-62
2022/05/08 00:36:34;;;;;;;16.48;4.72;;;8.50;99.90;;;;;;5013071;28;20054;-61
2022/05/08 00:39:00;;;;;;;17.23;4.88;;;8.50;99.90;;;;;;5031003;28;20045;-63
2022/05/08 00:41:26;;;;;;;20.83;4.90;;;8.50;99.90;;;;;;5031110;28;20049;-62
2022/05/08 00:43:51;;;;;;;20.63;5.05;;;8.50;99.90;;;;;;5030235;28;20057;-62
2022/05/08 00:46:17;;;;;;;19.52;4.80;;;8.40;99.90;;;;;;5029527;28;20060;-66
2022/05/08 00:48:44;;;;;;;13.50;4.15;;;8.40;99.90;;;;;;5031032;28;20047;-61
2022/05/08 00:51:16;;;;;;;21.83;5.13;;;8.40;99.90;;;;;;5030992;28;20475;-61
2022/05/08 00:53:45;;;;;;;16.27;4.72;;;8.30;99.90;;;;;;5029623;28;20050;-62
2022/05/08 00:56:12;;;;;;;16.88;4.20;;;8.30;99.90;;;;;;5031150;28;20080;-62
2022/05/08 00:58:40;;;;;;;13.25;3.83;;;8.30;99.90;;;;;;5029468;28;20049;-61
2022/05/08 01:01:08;;;;;;;12.60;4.03;;;8.30;99.90;;;;;;5046498;28;20056;-62
2022/05/08 01:03:34;;;;;;;15.18;4.03;;;8.20;99.90;;;;;;5029439;28;20045;-62
2022/05/08 01:06:06;;;;;;;17.58;4.97;;;8.20;99.90;;;;;;5029687;28;20076;-62
2022/05/08 01:08:34;;;;;;;15.68;3.85;;;8.20;99.90;;;;;;5012952;28;20467;-62
2022/05/08 01:11:04;;;;;;;15.48;3.65;;;8.20;99.90;;;;;;5031079;28;20129;-62
2022/05/08 01:13:30;;;;;;;18.05;4.65;;;8.10;99.90;;;;;;5030486;28;20389;-61
2022/05/08 01:15:56;;;;;;;13.32;3.60;;;8.00;99.90;;;;;;5030738;28;20045;-62
2022/05/08 01:18:22;;;;;;;15.60;4.15;;;8.10;99.90;;;;;;5029468;28;20049;-69
2022/05/08 01:20:48;;;;;;;16.65;3.83;;;8.10;99.90;;;;;;5030797;28;20081;-61
2022/05/08 01:23:15;;;;;;;13.38;3.45;;;8.10;99.90;;;;;;5030754;28;20045;-61
2022/05/08 01:25:51;;;;;;;17.25;4.38;;;8.10;99.90;;;;;;5029359;28;20628;-61
2022/05/08 01:28:18;;;;;;;11.55;3.78;;;8.00;99.90;;;;;;5030841;28;20042;-62
2022/05/08 01:30:45;;;;;;;19.38;3.97;;;8.00;99.90;;;;;;5029340;28;20132;-61
2022/05/08 01:33:12;;;;;;;14.23;3.80;;;8.00;99.90;;;;;;5030837;28;20052;-61
2022/05/08 01:35:38;;;;;;;12.18;3.90;;;8.00;99.90;;;;;;5029138;28;20065;-61
2022/05/08 01:38:05;;;;;;;12.02;3.60;;;8.00;99.90;;;;;;5030727;28;20060;-61
2022/05/08 01:40:31;;;;;;;12.80;3.75;;;8.00;99.90;;;;;;5029104;28;20049;-62
2022/05/08 01:42:58;;;;;;;13.43;4.03;;;7.90;99.90;;;;;;5030724;28;20096;-62
2022/05/08 01:45:23;;;;;;;12.30;3.95;;;7.90;99.90;;;;;;5032184;28;20053;-67
2022/05/08 01:50:34;;;;;;;16.08;4.07;;;7.80;99.90;;;;;;5033846;28;20056;-62
2022/05/08 01:53:00;;;;;;;15.70;4.72;;;7.70;99.90;;;;;;5034272;28;20041;-62
2022/05/08 01:55:26;;;;;;;14.07;4.13;;;7.60;99.90;;;;;;5033655;28;20438;-67
2022/05/08 01:57:53;;;;;;;14.88;3.55;;;7.60;99.90;;;;;;5032647;28;20045;-62
2022/05/08 02:00:20;;;;;;;11.38;3.25;;;7.60;99.90;;;;;;5032808;28;20552;-62
2022/05/08 02:02:48;;;;;;;13.40;3.70;;;7.60;99.90;;;;;;5033699;28;20156;-62
2022/05/08 02:05:16;;;;;;;18.40;4.20;;;7.60;99.90;;;;;;5016867;28;20050;-62
2022/05/08 02:07:43;;;;;;;11.60;3.55;;;7.60;99.90;;;;;;5033475;28;20090;-62
2022/05/08 02:10:09;;;;;;;12.93;4.30;;;7.50;99.90;;;;;;5034008;28;20037;-62
2022/05/08 02:12:35;;;;;;;16.40;4.18;;;7.50;99.90;;;;;;5032485;28;20111;-61
2022/05/08 02:15:00;;;;;;;10.25;3.63;;;7.40;99.90;;;;;;5032571;28;20131;-61
2022/05/08 02:17:27;;;;;;;9.40;3.38;;;7.40;99.90;;;;;;5031746;28;20046;-61
2022/05/08 02:19:53;;;;;;;15.30;3.83;;;7.40;99.90;;;;;;5033378;28;20129;-62
2022/05/08 02:22:18;;;;;;;15.57;4.03;;;7.30;99.90;;;;;;5033756;28;20577;-61
2022/05/08 02:24:44;;;;;;;12.73;3.65;;;7.30;99.90;;;;;;5032257;28;20042;-62
2022/05/08 02:27:10;;;;;;;9.18;3.30;;;7.20;99.90;;;;;;5016131;28;20123;-61
2022/05/08 02:29:35;;;;;;;12.18;3.22;;;7.20;99.90;;;;;;5032156;28;20049;-60
2022/05/08 02:32:01;;;;;;;13.93;4.05;;;7.20;99.90;;;;;;5032434;28;20057;-62
2022/05/08 02:34:27;;;;;;;14.10;3.92;;;7.20;99.90;;;;;;5032463;28;20053;-61
2022/05/08 02:36:52;;;;;;;13.10;3.30;;;7.10;99.90;;;;;;5031776;28;20050;-62
2022/05/08 02:39:18;;;;;;;12.23;3.38;;;7.10;99.90;;;;;;5031867;28;20081;-62
2022/05/08 02:41:45;;;;;;;12.45;3.58;;;7.10;99.90;;;;;;5031504;28;20045;-61
2022/05/08 02:44:11;;;;;;;12.30;3.65;;;7.10;99.90;;;;;;5033230;28;20056;-62
2022/05/08 02:46:37;;;;;;;14.18;4.05;;;7.10;99.90;;;;;;5032936;28;20053;-62
2022/05/08 02:49:02;;;;;;;11.75;3.35;;;7.10;99.90;;;;;;5031712;28;20048;-61
2022/05/08 02:51:28;;;;;;;11.85;3.38;;;7.00;99.90;;;;;;5032904;28;20180;-62
2022/05/08 02:53:54;;;;;;;10.02;3.53;;;7.00;99.90;;;;;;5047846;28;20125;-62
2022/05/08 02:59:04;;;;;;;17.75;4.35;;;7.00;99.90;;;;;;5031728;28;20054;-65
2022/05/08 03:01:29;;;;;;;10.38;3.72;;;7.00;99.90;;;;;;5031929;28;20041;-62
2022/05/08 03:03:55;;;;;;;12.75;3.67;;;7.00;99.90;;;;;;5014529;28;20045;-63
2022/05/08 03:06:21;;;;;;;16.85;3.97;;;6.90;99.90;;;;;;5031404;28;20053;-62
2022/05/08 03:08:50;;;;;;;11.98;3.45;;;6.90;99.90;;;;;;5031128;28;20132;-61
2022/05/08 03:11:29;;;;;;;13.57;4.32;;;6.90;99.90;;;;;;5031774;28;20137;-62
2022/05/08 03:13:59;;;;;;;17.80;4.20;;;7.00;99.90;;;;;;5014931;28;20088;-62
2022/05/08 03:16:27;;;;;;;13.70;3.95;;;6.90;99.90;;;;;;5031321;28;20498;-63
2022/05/08 03:18:54;;;;;;;15.32;4.13;;;6.90;99.90;;;;;;5031041;28;20056;-62
2022/05/08 03:21:20;;;;;;;10.48;4.03;;;6.90;99.90;;;;;;5032483;28;20045;-62
2022/05/08 03:23:46;;;;;;;16.55;4.55;;;6.90;99.90;;;;;;5030856;28;20548;-62
2022/05/08 03:26:14;;;;;;;9.32;3.58;;;6.80;99.90;;;;;;5014979;28;20057;-62
2022/05/08 03:28:40;;;;;;;12.93;3.88;;;6.80;99.90;;;;;;5031992;28;20112;-67
2022/05/08 03:31:06;;;;;;;9.27;3.67;;;6.80;99.90;;;;;;5032450;28;20095;-62
2022/05/08 03:33:34;;;;;;;12.13;3.33;;;6.80;99.90;;;;;;5031079;28;20139;-61
2022/05/08 03:36:00;;;;;;;11.75;3.63;;;6.80;99.90;;;;;;5030360;28;20694;-61
2022/05/08 03:38:27;;;;;;;9.40;3.72;;;6.70;99.90;;;;;;5031929;28;20053;-62
2022/05/08 03:40:53;;;;;;;17.15;3.85;;;6.70;99.90;;;;;;5014313;28;20053;-62
2022/05/08 03:43:19;;;;;;;10.82;3.78;;;6.70;99.90;;;;;;5032013;28;20053;-61
2022/05/08 03:45:48;;;;;;;9.80;3.17;;;6.70;99.90;;;;;;5030292;28;20454;-63
2022/05/08 03:48:15;;;;;;;9.85;3.72;;;6.70;99.90;;;;;;5030462;28;20045;-62
2022/05/08 03:50:41;;;;;;;11.00;3.50;;;6.70;99.90;;;;;;5031807;28;20045;-65
2022/05/08 03:53:06;;;;;;;8.57;3.42;;;6.70;99.90;;;;;;5030697;28;20057;-62
2022/05/08 03:55:32;;;;;;;12.45;4.05;;;6.70;99.90;;;;;;5030668;28;20394;-62
2022/05/08 03:57:58;;;;;;;11.10;3.70;;;6.70;99.90;;;;;;5031264;28;20453;-62
2022/05/08 04:00:23;;;;;;;14.77;3.60;;;6.70;99.90;;;;;;5030365;28;20277;-62
2022/05/08 04:02:49;;;;;;;10.60;3.47;;;6.70;99.90;;;;;;5046795;28;20186;-63
2022/05/08 04:05:15;;;;;;;12.93;3.33;;;6.70;99.90;;;;;;5030617;28;20049;-62
2022/05/08 04:07:41;;;;;;;11.43;3.85;;;6.70;99.90;;;;;;5031339;28;20062;-63
2022/05/08 04:10:08;;;;;;;10.50;3.22;;;6.60;99.90;;;;;;5030555;28;20049;-62
2022/05/08 04:12:35;;;;;;;9.20;3.17;;;6.60;99.90;;;;;;5031716;28;20139;-62
2022/05/08 04:15:01;;;;;;;9.00;3.08;;;6.80;99.90;;;;;;5029960;28;20053;-61
2022/05/08 04:17:28;;;;;;;8.52;2.90;;;6.80;99.90;;;;;;5031340;28;20123;-61
2022/05/08 04:19:56;;;;;;;12.93;3.28;;;6.70;99.90;;;;;;5030928;28;20084;-62
2022/05/08 04:25:10;;;;;;;12.13;3.50;;;6.80;99.90;;;;;;5030911;28;20041;-62
2022/05/08 04:27:37;;;;;;;13.05;3.17;;;6.90;99.90;;;;;;5031476;28;20192;-63
2022/05/08 04:30:04;;;;;;;11.15;3.03;;;6.90;99.90;;;;;;5029846;28;20050;-62
2022/05/08 04:32:29;;;;;;;8.00;2.85;;;6.90;99.90;;;;;;5029961;28;20418;-62
2022/05/08 04:34:55;;;;;;;7.72;2.92;;;7.00;99.90;;;;;;5030954;28;20049;-62
2022/05/08 04:37:21;;;;;;;7.60;2.97;;;7.00;99.90;;;;;;5031356;28;20435;-61
2022/05/08 04:39:46;;;;;;;8.20;3.13;;;7.00;99.90;;;;;;5031066;28;20123;-62
2022/05/08 04:42:12;;;;;;;5.38;2.67;;;7.00;99.90;;;;;;5030572;28;20474;-62
2022/05/08 04:44:38;;;;;;;9.90;2.80;;;7.10;99.90;;;;;;5031245;28;20051;-61
2022/05/08 04:47:04;;;;;;;8.93;3.17;;;7.20;99.90;;;;;;5030829;28;20477;-62
2022/05/08 04:49:30;;;;;;;11.15;2.85;;;7.30;99.90;;;;;;5046266;28;20103;-61
2022/05/08 04:51:55;;;;;;;11.98;2.88;;;7.50;99.90;;;;;;5030179;28;20136;-62
2022/05/08 04:54:24;;;;;;;9.05;2.85;;;7.80;99.90;;;;;;5029831;28;20053;-62
2022/05/08 04:56:51;;;;;;;12.48;3.03;;;8.10;99.90;;;;;;5030317;28;20046;-66
2022/05/08 04:59:17;;;;;;;6.15;2.72;;;8.30;99.90;;;;;;5029835;28;20095;-65
2022/05/08 05:01:43;;;;;;;6.75;2.35;;;8.40;99.90;;;;;;5030014;28;20057;-63
2022/05/08 05:04:09;;;;;;;11.55;2.63;;;8.40;99.90;;;;;;5030813;28;20041;-61
2022/05/08 05:06:35;;;;;;;9.20;2.80;;;8.40;99.90;;;;;;5029669;28;20088;-62
2022/05/08 05:09:00;;;;;;;7.63;2.83;;;8.40;99.90;;;;;;5029217;28;20049;-62
2022/05/08 05:11:26;;;;;;;10.65;3.00;;;8.40;99.90;;;;;;5029632;28;20088;-63
2022/05/08 05:13:52;;;;;;;10.30;2.80;;;8.60;99.90;;;;;;5013407;28;20092;-67
2022/05/08 05:16:17;;;;;;;7.72;2.53;;;9.00;99.90;;;;;;5029481;28;20122;-65
2022/05/08 05:18:43;;;;;;;5.70;2.30;;;9.70;99.90;;;;;;5030913;28;20095;-63
2022/05/08 05:21:09;;;;;;;9.80;2.95;;;10.20;99.90;;;;;;5033413;28;20390;-63
2022/05/08 05:23:37;;;;;;;9.80;3.10;;;10.30;99.90;;;;;;5033444;28;20132;-62
2022/05/08 05:26:03;;;;;;;8.73;2.45;;;10.20;99.90;;;;;;5034113;28;20045;-63
2022/05/08 05:28:30;;;;;;;9.45;2.78;;;10.10;99.90;;;;;;5033613;28;20134;-62
2022/05/08 05:30:56;;;;;;;8.40;2.40;;;10.10;99.90;;;;;;5016780;28;20136;-67
2022/05/08 05:33:22;;;;;;;7.53;2.83;;;10.70;99.90;;;;;;5033515;28;20136;-63
2022/05/08 05:35:48;;;;;;;10.85;2.42;;;11.60;99.90;;;;;;5033055;28;20057;-63
2022/05/08 05:38:13;;;;;;;7.97;2.45;;;12.10;99.90;;;;;;5032856;28;20049;-62
2022/05/08 05:40:39;;;;;;;10.30;2.67;;;12.10;99.90;;;;;;5033335;28;20041;-61
2022/05/08 05:43:05;;;;;;;7.45;2.30;;;11.80;99.90;;;;;;5033956;28;20068;-61
2022/05/08 05:45:30;;;;;;;7.75;2.53;;;11.50;99.90;;;;;;5032822;28;20130;-62
2022/05/08 05:47:59;;;;;;;6.22;2.38;;;11.30;99.90;;;;;;5034191;28;20054;-65
2022/05/08 05:50:25;;;;;;;12.52;3.13;;;11.40;99.90;;;;;;5016659;28;20136;-61
2022/05/08 05:52:52;;;;;;;7.90;2.80;;;11.40;99.90;;;;;;5034087;28;20137;-62
2022/05/08 05:55:19;;;;;;;7.40;2.00;;;11.40;99.90;;;;;;5048864;28;20049;-61
2022/05/08 05:57:45;;;;;;;8.07;2.35;;;11.70;99.90;;;;;;5034060;28;20049;-62
2022/05/08 06:00:14;;;;;;;9.23;2.42;;;12.10;99.90;;;;;;5015902;28;20041;-62
2022/05/08 06:02:43;;;;;;;9.95;2.53;;;12.40;99.90;;;;;;5034403;28;20045;-62
2022/05/08 06:05:09;;;;;;;11.90;2.97;;;12.60;99.90;;;;;;5033267;28;20128;-61
2022/05/08 06:07:37;;;;;;;8.23;2.40;;;13.00;99.90;;;;;;5033886;28;20407;-63
2022/05/08 06:10:05;;;;;;;11.07;2.22;;;13.20;99.90;;;;;;5032567;28;20128;-62
2022/05/08 06:12:32;;;;;;;6.55;2.22;;;13.50;99.90;;;;;;5033724;28;20038;-62
2022/05/08 06:14:57;;;;;;;8.90;2.60;;;13.50;99.90;;;;;;5033295;28;20103;-62
2022/05/08 06:17:24;;;;;;;7.40;2.30;;;13.50;99.90;;;;;;5031995;28;20046;-62
2022/05/08 06:19:49;;;;;;;10.45;2.72;;;13.70;99.90;;;;;;5033594;28;20409;-63
2022/05/08 06:22:15;;;;;;;8.50;2.58;;;14.10;99.90;;;;;;5031995;28;20049;-63
2022/05/08 06:24:41;;;;;;;10.68;2.40;;;14.30;99.90;;;;;;5032219;28;20041;-62
2022/05/08 06:27:07;;;;;;;8.45;2.55;;;14.60;99.90;;;;;;5033148;28;20140;-62
2022/05/08 06:29:33;;;;;;;10.23;2.30;;;14.80;99.90;;;;;;5033412;28;20141;-61
2022/05/08 06:32:00;;;;;;;10.55;2.30;;;14.70;99.90;;;;;;5033352;28;20049;-62
2022/05/08 06:34:29;;;;;;;8.48;2.05;;;14.60;99.90;;;;;;5031678;28;20091;-62
2022/05/08 06:36:55;;;;;;;7.00;2.05;;;14.20;99.90;;;;;;5031914;28;20053;-62
2022/05/08 06:39:21;;;;;;;11.68;2.85;;;13.70;99.90;;;;;;5032861;28;20041;-63
2022/05/08 06:41:47;;;;;;;8.40;2.30;;;13.50;99.90;;;;;;5032394;28;20056;-61
2022/05/08 06:44:15;;;;;;;8.20;2.22;;;14.00;99.90;;;;;;5031770;28;20057;-63
2022/05/08 06:46:41;;;;;;;10.07;2.35;;;14.90;99.90;;;;;;5033083;28;20433;-61
2022/05/08 06:49:07;;;;;;;9.75;2.13;;;15.90;99.40;;;;;;5032520;28;20045;-67
2022/05/08 06:51:34;;;;;;;8.90;2.60;;;16.40;98.10;;;;;;5048444;28;20089;-63
2022/05/08 06:54:00;;;;;;;9.40;2.13;;;16.80;98.80;;;;;;5033032;28;20049;-63
2022/05/08 06:56:26;;;;;;;9.95;2.58;;;17.50;97.20;;;;;;5031365;28;20119;-63
2022/05/08 07:01:43;;;;;;;7.28;2.30;;;18.90;94.10;;;;;;5031556;28;20088;-64
2022/05/08 07:04:10;;;;;;;11.13;2.50;;;18.90;93.60;;;;;;5031359;28;20064;-68
2022/05/08 07:06:37;;;;;;;7.30;2.13;;;18.40;92.20;;;;;;5032899;28;20081;-62
2022/05/08 07:09:04;;;;;;;7.18;1.92;;;17.60;93.30;;;;;;5032482;28;20049;-62
2022/05/08 07:11:30;;;;;;;8.35;1.95;;;16.70;93.70;;;;;;5032254;28;20041;-63
2022/05/08 07:14:00;;;;;;;8.77;2.22;;;16.00;94.70;;;;;;5014826;28;20076;-62
2022/05/08 07:16:26;;;;;;;9.07;2.42;;;15.60;95.30;;;;;;5047831;28;20119;-62
2022/05/08 07:18:52;;;;;;;8.15;1.98;;;16.40;95.00;;;;;;5032515;28;20041;-63
2022/05/08 07:21:19;;;;;;;8.85;2.65;;;17.50;93.90;;;;;;5032080;28;20077;-62
2022/05/08 07:23:45;;;;;;;8.95;2.30;;;18.20;93.50;;;;;;5031408;28;20085;-63
2022/05/08 07:26:11;;;;;;;9.15;2.10;;;19.10;91.80;;;;;;5032248;28;20049;-68
2022/05/08 07:28:37;;;;;;;8.77;2.22;;;20.00;90.70;;;;;;5031049;28;20103;-63
2022/05/08 07:31:03;;;;;;;7.88;2.15;;;20.60;87.90;;;;;;5032031;28;20391;-62
2022/05/08 07:33:34;;;;;;;8.60;2.35;;;21.00;85.40;;;;;;5031638;28;20131;-62
2022/05/08 07:36:12;;;;;;;8.68;2.30;;;21.60;87.10;;;;;;5030596;28;20502;-62
2022/05/08 07:38:40;;;;;;;8.13;2.40;;;21.60;83.00;;;;;;5031984;28;20065;-63
2022/05/08 07:41:06;;;;;;;7.72;1.90;;;22.50;81.50;;;;;;5031852;28;20060;-63
2022/05/08 07:43:32;;;;;;;7.15;2.08;;;21.60;80.40;;;;;;5030908;28;20056;-64
2022/05/08 07:45:58;;;;;;;6.55;2.15;;;21.60;80.40;;;;;;5032031;28;20140;-63
2022/05/08 07:48:24;;;;;;;9.38;2.00;;;21.50;80.30;;;;;;5046847;28;20046;-63
2022/05/08 07:50:50;;;;;;;11.75;2.67;;;21.60;78.30;;;;;;5031913;28;20098;-62
2022/05/08 07:53:16;;;;;;;7.72;2.38;;;21.60;77.60;;;;;;5014036;28;20053;-68
2022/05/08 07:55:42;;;;;;;8.55;2.13;;;21.60;78.30;;;;;;5031832;28;20052;-63
2022/05/08 07:58:09;;;;;;;9.35;2.42;;;21.70;76.60;;;;;;5030500;28;20545;-62
2022/05/08 08:00:36;;;;;;;11.00;2.80;;;21.30;77.10;;;;;;5030277;28;20601;-62
2022/05/08 08:03:03;;;;;;;10.60;2.55;;;21.00;76.70;;;;;;5031607;28;20050;-62
2022/05/08 08:05:29;;;;;;;8.32;2.08;;;20.90;76.60;;;;;;5030330;28;20135;-62
2022/05/08 08:07:55;;;;;;;6.45;2.00;;;20.00;77.60;;;;;;5032000;28;20449;-62
2022/05/08 08:10:21;;;;;;;9.45;2.25;;;19.60;79.80;;;;;;5013834;28;20041;-62
2022/05/08 08:12:47;;;;;;;9.25;2.05;;;19.60;79.10;;;;;;5047011;28;20136;-63
2022/05/08 08:15:12;;;;;;;7.78;2.30;;;20.30;77.90;;;;;;5030750;28;20103;-63
2022/05/08 08:17:39;;;;;;;8.52;2.50;;;19.70;78.00;;;;;;5031081;28;20044;-62
2022/05/08 08:20:06;;;;;;;10.90;2.70;;;19.60;79.30;;;;;;5031044;28;20054;-61
2022/05/08 08:22:33;;;;;;;8.70;2.50;;;19.30;79.40;;;;;;5030614;28;20117;-61
2022/05/08 08:25:00;;;;;;;7.47;2.30;;;18.60;81.00;;;;;;5030239;28;20049;-61
2022/05/08 08:27:26;;;;;;;10.95;2.70;;;18.10;82.40;;;;;;5030792;28;20057;-61
2022/05/08 08:29:54;;;;;;;9.80;2.33;;;18.20;82.50;;;;;;5031259;28;20038;-61
2022/05/08 08:32:21;;;;;;;9.40;2.92;;;18.10;82.70;;;;;;5030890;28;20053;-67
2022/05/08 08:34:48;;;;;;;6.78;2.33;;;19.00;82.30;;;;;;5031372;28;20111;-62
2022/05/08 08:37:14;;;;;;;10.70;2.40;;;20.00;80.50;;;;;;5029108;28;20136;-62
2022/05/08 08:39:40;;;;;;;8.15;2.13;;;20.30;79.90;;;;;;5030717;28;20134;-61
2022/05/08 08:42:30;;;;;;;8.15;2.33;;;20.80;79.60;;;;;;5031152;28;20513;-61
2022/05/08 08:48:06;;;;;;;6.00;2.20;;;21.30;77.70;;;;;;5031033;28;20081;-63
2022/05/08 08:50:33;;;;;;;9.77;2.55;;;21.60;75.70;;;;;;5029582;28;20092;-61
2022/05/08 08:53:02;;;;;;;9.20;2.33;;;21.30;75.00;;;;;;5030859;28;20123;-62
2022/05/08 08:55:28;;;;;;;8.40;2.22;;;21.10;76.20;;;;;;5047540;28;20124;-62
2022/05/08 08:57:54;;;;;;;9.70;2.40;;;20.90;74.80;;;;;;5035055;28;20049;-62
2022/05/08 09:00:21;;;;;;;10.10;2.40;;;20.60;76.10;;;;;;5034873;28;20478;-61
2022/05/08 09:02:48;;;;;;;10.30;2.65;;;20.30;76.50;;;;;;5034482;28;20052;-62
2022/05/08 09:05:14;;;;;;;12.68;2.30;;;20.00;77.00;;;;;;5033818;28;20046;-61
2022/05/08 09:07:43;;;;;;;7.05;2.22;;;20.10;77.40;;;;;;5033101;28;20104;-62
2022/05/08 09:10:27;;;;;;;6.25;2.30;;;20.10;77.60;;;;;;5034490;28;20052;-62
2022/05/08 09:12:53;;;;;;;8.57;2.40;;;19.60;78.50;;;;;;5033281;28;20053;-62
2022/05/08 09:15:24;;;;;;;8.48;2.60;;;18.90;80.20;;;;;;5034156;28;20041;-60
2022/05/08 09:17:52;;;;;;;7.95;2.20;;;18.20;81.20;;;;;;5032427;28;20053;-62
2022/05/08 09:20:27;;;;;;;8.85;2.78;;;17.90;82.10;;;;;;5034426;28;20336;-62
2022/05/08 09:23:00;;;;;;;8.05;2.60;;;17.70;82.50;;;;;;5032520;28;20052;-62
2022/05/08 09:25:54;;;;;;;7.50;2.33;;;18.30;82.70;;;;;;5034255;28;20042;-62
2022/05/08 09:28:41;;;;;;;8.20;2.83;;;18.80;80.80;;;;;;5034410;28;20129;-62
2022/05/08 09:31:16;;;;;;;8.18;2.25;;;18.60;80.80;;;;;;5034699;28;20045;-62
2022/05/08 09:33:44;;;;;;;15.00;2.80;;;18.70;81.60;;;;;;5034095;28;20048;-63
2022/05/08 09:36:11;;;;;;;7.85;2.53;;;18.60;80.70;;;;;;5034574;28;20049;-63
2022/05/08 09:38:50;;;;;;;11.48;2.53;;;19.00;80.70;;;;;;5034041;28;20064;-62
2022/05/08 09:41:21;;;;;;;10.45;2.40;;;19.40;79.80;;;;;;5034658;28;20061;-64
2022/05/08 09:43:49;;;;;;;11.48;2.58;;;19.30;78.80;;;;;;5032424;28;20107;-62
2022/05/08 09:46:15;;;;;;;6.90;2.22;;;18.90;80.00;;;;;;5016750;28;20072;-62
2022/05/08 09:48:41;;;;;;;9.18;2.80;;;18.40;81.00;;;;;;5032722;28;20055;-62
2022/05/08 09:51:09;;;;;;;7.63;2.50;;;17.80;82.40;;;;;;5032941;28;20045;-62
2022/05/08 09:53:36;;;;;;;11.05;2.78;;;17.20;82.70;;;;;;5033463;28;20517;-63
2022/05/08 09:56:05;;;;;;;6.90;2.50;;;17.10;84.20;;;;;;5034274;28;20140;-62
2022/05/08 09:58:32;;;;;;;8.73;2.22;;;17.00;85.20;;;;;;5033954;28;20707;-63
2022/05/08 10:00:58;;;;;;;11.93;2.60;;;17.10;84.20;;;;;;5032498;28;20057;-63
2022/05/08 10:03:25;;;;;;;8.25;2.10;;;17.10;84.30;;;;;;5049373;28;20052;-63
2022/05/08 10:05:52;;;;;;;11.90;2.47;;;17.00;83.70;;;;;;5032350;28;20045;-62
2022/05/08 10:08:27;;;;;;;5.47;2.25;;;17.10;83.90;;;;;;5031932;28;20046;-63
2022/05/08 10:16:48;;;;;;;11.40;2.80;;;17.00;82.60;;;;;;5033010;28;20556;-62
2022/05/08 10:19:21;;;;;;;9.60;2.75;;;16.80;83.40;;;;;;5033141;28;20045;-62
2022/05/08 10:21:56;;;;;;;6.68;2.22;;;16.60;84.20;;;;;;5030938;28;20379;-62
2022/05/08 10:24:31;;;;;;;7.30;2.30;;;16.50;84.50;;;;;;5015201;28;20060;-61
2022/05/08 10:27:29;;;;;;;9.50;2.40;;;16.60;84.10;;;;;;5032722;28;20133;-62
2022/05/08 10:29:55;;;;;;;10.23;2.60;;;17.00;85.80;;;;;;5032925;28;20052;-62
2022/05/08 10:32:30;;;;;;;10.43;2.40;;;16.90;83.70;;;;;;5032975;28;20045;-63
2022/05/08 10:35:20;;;;;;;10.57;2.78;;;16.80;84.30;;;;;;5033079;28;20063;-64
2022/05/08 10:37:50;;;;;;;10.30;2.60;;;16.70;84.80;;;;;;5015015;28;20071;-62
2022/05/08 10:40:22;;;;;;;9.90;2.05;;;16.40;85.40;;;;;;5033031;28;20052;-62
2022/05/08 10:42:49;;;;;;;10.77;2.70;;;16.50;85.60;;;;;;5032355;28;20454;-62
2022/05/08 10:45:33;;;;;;;9.00;2.70;;;16.50;85.80;;;;;;5033014;28;20064;-61
2022/05/08 10:48:08;;;;;;;10.25;2.50;;;16.40;84.60;;;;;;5032216;28;20193;-63
2022/05/08 10:50:34;;;;;;;11.00;2.70;;;16.40;85.30;;;;;;5031028;28;20057;-62
2022/05/08 10:53:00;;;;;;;12.50;2.40;;;16.60;84.10;;;;;;5032281;28;20049;-62
2022/05/08 10:55:27;;;;;;;9.65;2.58;;;16.60;82.90;;;;;;5048015;28;20402;-62
2022/05/08 10:57:54;;;;;;;9.23;2.22;;;16.60;82.60;;;;;;5031279;28;20083;-62
2022/05/08 11:00:19;;;;;;;9.38;2.80;;;16.60;81.70;;;;;;5032691;28;20045;-61
2022/05/08 11:02:52;;;;;;;10.32;2.58;;;16.60;83.10;;;;;;5032103;28;20250;-61
2022/05/08 11:05:19;;;;;;;12.27;3.00;;;16.60;84.60;;;;;;5032025;28;20132;-62
2022/05/08 11:07:50;;;;;;;8.57;2.35;;;16.80;85.20;;;;;;5031244;28;20581;-61
2022/05/08 11:10:18;;;;;;;8.45;2.30;;;16.90;85.00;;;;;;5032818;28;20112;-62
2022/05/08 11:13:00;;;;;;;9.05;2.25;;;16.70;83.60;;;;;;5030475;28;20517;-61
2022/05/08 11:15:34;;;;;;;8.88;3.28;;;16.50;85.00;;;;;;5032810;28;20076;-61
2022/05/08 11:18:08;;;;;;;8.68;2.70;;;16.30;84.20;;;;;;5031436;28;20072;-61
2022/05/08 11:20:36;;;;;;;;;;;16.10;83.70;;;;;;5031203;28;20052;-62
2022/05/08 11:23:05;;;;;;;8.75;2.70;;;15.90;84.10;;;;;;5030964;28;19940;-62
2022/05/08 11:25:34;;;;;;;11.38;2.53;;;15.60;86.60;;;;;;5030821;28;20088;-62
2022/05/08 11:28:01;;;;;;;10.57;2.58;;;15.90;88.00;;;;;;5030969;28;20124;-62
2022/05/08 11:30:38;;;;;;;10.15;2.80;;;16.10;88.30;;;;;;5032471;28;20054;-65
2022/05/08 11:36:08;;;;;;;8.98;2.47;;;16.20;86.70;;;;;;5031728;28;20057;-62
2022/05/08 11:38:55;;;;;;;9.43;2.95;;;16.20;88.80;;;;;;5030044;28;20471;-61
2022/05/08 11:41:34;;;;;;;8.95;2.63;;;16.40;88.40;;;;;;5031555;28;20096;-61
2022/05/08 11:44:25;;;;;;;8.80;2.30;;;16.70;88.00;;;;;;5047083;28;20061;-63
2022/05/08 11:46:55;;;;;;;15.02;3.00;;;16.80;87.70;;;;;;5031395;28;20486;-62
2022/05/08 11:49:22;;;;;;;8.20;2.35;;;16.60;86.90;;;;;;5030587;28;20440;-61
2022/05/08 11:51:52;;;;;;;9.43;2.53;;;16.60;86.70;;;;;;5030735;28;20041;-62
2022/05/08 11:54:32;;;;;;;10.20;2.30;;;16.50;86.40;;;;;;5014164;28;20045;-61
2022/05/08 11:57:12;;;;;;;9.93;2.55;;;16.60;87.90;;;;;;5030518;28;20060;-62
2022/05/08 11:59:39;;;;;;;10.77;2.88;;;16.50;85.30;;;;;;5031577;28;20037;-63
2022/05/08 12:02:04;;;;;;;8.93;2.88;;;16.50;87.40;;;;;;5031193;28;20081;-61
2022/05/08 12:04:34;;;;;;;11.27;2.55;;;16.30;87.10;;;;;;5030545;28;20533;-62
2022/05/08 12:07:07;;;;;;;10.38;2.35;;;16.20;87.30;;;;;;5029735;28;20053;-61
2022/05/08 12:09:39;;;;;;;9.90;2.30;;;16.30;87.70;;;;;;5031434;28;20468;-61
2022/05/08 12:12:28;;;;;;;9.55;2.13;;;16.50;87.30;;;;;;5031154;28;20120;-61
2022/05/08 12:15:06;;;;;;;10.75;2.40;;;16.60;87.00;;;;;;5031284;28;20049;-62
2022/05/08 12:17:41;;;;;;;8.93;2.25;;;16.40;87.50;;;;;;5031557;28;20099;-61
2022/05/08 12:20:15;;;;;;;7.30;1.98;;;16.50;87.00;;;;;;5030946;28;20041;-61
2022/05/08 12:22:41;;;;;;;10.45;2.50;;;16.40;86.30;;;;;;5031135;28;20046;-61
2022/05/08 12:25:08;;;;;;;8.20;2.38;;;16.40;87.20;;;;;;5031003;28;20045;-61
2022/05/08 12:27:34;;;;;;;10.25;2.35;;;16.30;86.60;;;;;;5031285;28;20438;-62
2022/05/08 12:30:01;;;;;;;13.73;2.80;;;16.20;87.70;;;;;;5045907;28;20461;-62
2022/05/08 12:32:27;;;;;;;8.27;2.78;;;16.00;87.70;;;;;;5031039;28;20115;-62
2022/05/08 12:34:54;;;;;;;9.73;2.95;;;16.10;89.00;;;;;;5031580;28;20128;-67
2022/05/08 12:37:21;;;;;;;15.02;2.67;;;16.20;87.40;;;;;;5030816;28;20518;-62
2022/05/08 12:39:47;;;;;;;9.85;2.53;;;16.20;87.00;;;;;;5030981;28;20159;-60
2022/05/08 12:42:13;;;;;;;8.75;2.50;;;16.20;86.10;;;;;;5030748;28;20088;-61
2022/05/08 12:44:40;;;;;;;12.55;2.70;;;16.20;86.80;;;;;;5030019;28;20128;-61
2022/05/08 12:47:08;;;;;;;8.57;2.63;;;16.10;88.60;;;;;;5030203;28;20037;-62
2022/05/08 12:49:35;;;;;;;12.38;3.08;;;15.90;87.40;;;;;;5029332;28;20053;-63
2022/05/08 12:52:02;;;;;;;10.85;2.80;;;15.90;87.90;;;;;;5029292;28;20462;-64
2022/05/08 12:54:27;;;;;;;9.38;2.35;;;15.90;88.30;;;;;;5030981;28;20053;-62
2022/05/08 12:56:53;;;;;;;12.23;2.70;;;15.90;87.70;;;;;;5030940;28;20046;-64
2022/05/08 13:02:03;;;;;;;11.13;2.70;;;15.80;87.40;;;;;;5030658;28;20079;-63
2022/05/08 13:04:29;;;;;;;12.65;2.58;;;15.70;88.10;;;;;;5030661;28;20042;-62
2022/05/08 13:06:55;;;;;;;10.55;2.38;;;15.70;88.20;;;;;;5029386;28;20056;-66
2022/05/08 13:09:21;;;;;;;9.20;2.45;;;15.70;87.30;;;;;;5029224;28;20479;-62
2022/05/08 13:11:46;;;;;;;11.73;2.70;;;15.50;88.10;;;;;;5030925;28;20045;-60
2022/05/08 13:14:12;;;;;;;8.48;2.40;;;15.50;87.80;;;;;;5029408;28;20045;-60
2022/05/08 13:16:38;;;;;;;11.70;2.92;;;15.50;89.50;;;;;;5030826;28;20041;-61